createdAt,value
2022-08-30T00:02:02.280Z,2.17
2022-08-30T00:04:29.603Z,1.98
2022-08-30T00:06:57.001Z,1.95
2022-08-30T00:09:24.496Z,2.10
2022-08-30T00:11:52.350Z,2.40
2022-08-30T00:14:20.638Z,2.30
2022-08-30T00:16:48.001Z,1.92
2022-08-30T00:19:15.412Z,2.55
2022-08-30T00:21:42.833Z,2.33
2022-08-30T00:24:10.318Z,2.38
2022-08-30T00:26:37.715Z,2.10
2022-08-30T00:29:05.067Z,2.28
2022-08-30T00:31:32.550Z,1.88
2022-08-30T00:34:00.011Z,2.42
2022-08-30T00:36:27.958Z,2.08
2022-08-30T00:38:55.394Z,2.10
2022-08-30T00:41:23.040Z,2.00
2022-08-30T00:43:50.501Z,1.88
2022-08-30T00:46:17.969Z,2.00
2022-08-30T00:48:48.273Z,1.95
2022-08-30T00:51:17.507Z,1.98
2022-08-30T00:53:48.556Z,2.08
2022-08-30T00:56:16.538Z,2.00
2022-08-30T00:58:49.072Z,2.05
2022-08-30T01:01:16.967Z,2.10
2022-08-30T01:03:45.608Z,2.10
2022-08-30T01:06:15.900Z,1.70
2022-08-30T01:08:45.479Z,1.92
2022-08-30T01:11:15.709Z,2.03
2022-08-30T01:13:47.525Z,2.15
2022-08-30T01:16:15.904Z,1.90
2022-08-30T01:18:45.954Z,2.30
2022-08-30T01:21:34.313Z,2.17
2022-08-30T01:24:02.487Z,2.05
2022-08-30T01:26:31.013Z,1.77
2022-08-30T01:29:02.845Z,2.05
2022-08-30T01:31:30.283Z,2.10
2022-08-30T01:33:57.674Z,1.75
2022-08-30T01:36:25.476Z,2.88
2022-08-30T01:38:58.531Z,2.05
2022-08-30T01:41:32.854Z,2.60
2022-08-30T01:44:02.966Z,2.15
2022-08-30T01:46:36.880Z,1.92
2022-08-30T01:49:10.340Z,1.85
2022-08-30T01:51:38.617Z,2.05
2022-08-30T01:54:06.487Z,2.15
2022-08-30T01:56:34.125Z,2.45
2022-08-30T01:59:03.028Z,2.13
2022-08-30T02:01:35.967Z,2.20
2022-08-30T02:04:04.698Z,1.98
2022-08-30T02:06:32.464Z,2.20
2022-08-30T02:09:00.366Z,1.77
2022-08-30T02:11:27.893Z,2.28
2022-08-30T02:13:55.277Z,2.30
2022-08-30T02:16:25.040Z,2.03
2022-08-30T02:18:55.359Z,2.17
2022-08-30T02:21:23.260Z,2.40
2022-08-30T02:23:51.299Z,1.92
2022-08-30T02:26:19.125Z,2.13
2022-08-30T02:28:49.980Z,1.85
2022-08-30T02:31:21.015Z,2.22
2022-08-30T02:33:50.911Z,1.92
2022-08-30T02:36:20.950Z,1.92
2022-08-30T02:38:50.041Z,2.00
2022-08-30T02:41:18.552Z,1.83
2022-08-30T02:43:46.089Z,2.00
2022-08-30T02:46:14.911Z,2.30
2022-08-30T02:48:42.874Z,1.95
2022-08-30T02:51:13.788Z,1.90
2022-08-30T02:53:43.995Z,2.20
2022-08-30T02:56:13.047Z,1.95
2022-08-30T02:58:42.718Z,2.15
2022-08-30T03:01:12.656Z,1.98
2022-08-30T03:04:39.471Z,2.45
2022-08-30T03:07:08.762Z,1.85
2022-08-30T03:09:37.146Z,2.35
2022-08-30T03:12:07.306Z,1.83
2022-08-30T03:14:37.814Z,2.20
2022-08-30T03:17:11.231Z,2.17
2022-08-30T03:19:44.423Z,2.22
2022-08-30T03:22:12.492Z,1.90
2022-08-30T03:24:40.621Z,1.80
2022-08-30T03:27:08.494Z,1.88
2022-08-30T03:29:35.917Z,1.80
2022-08-30T03:32:03.984Z,2.00
2022-08-30T03:34:31.725Z,1.90
2022-08-30T03:37:01.541Z,1.58
2022-08-30T03:39:28.904Z,2.00
2022-08-30T03:41:56.228Z,1.60
2022-08-30T03:44:23.838Z,1.88
2022-08-30T03:46:51.310Z,2.00
2022-08-30T03:49:19.215Z,1.90
2022-08-30T03:51:47.629Z,2.05
2022-08-30T03:54:15.483Z,2.50
2022-08-30T03:56:42.939Z,1.80
2022-08-30T03:59:10.478Z,1.90
2022-08-30T04:01:37.947Z,1.95
2022-08-30T04:04:05.531Z,2.13
2022-08-30T04:06:33.577Z,2.17
2022-08-30T04:09:01.038Z,1.88
2022-08-30T04:11:28.541Z,2.05
2022-08-30T04:13:57.806Z,2.13
2022-08-30T04:16:26.726Z,2.38
2022-08-30T04:18:54.145Z,2.45
2022-08-30T04:21:21.547Z,2.10
2022-08-30T04:23:48.904Z,2.10
2022-08-30T04:26:16.279Z,2.08
2022-08-30T04:28:44.448Z,2.08
2022-08-30T04:31:16.697Z,2.45
2022-08-30T04:33:46.286Z,2.78
2022-08-30T04:36:15.522Z,2.33
2022-08-30T04:38:43.433Z,2.13
2022-08-30T04:41:17.545Z,2.55
2022-08-30T04:43:46.481Z,2.28
2022-08-30T04:46:14.386Z,2.13
2022-08-30T04:48:41.883Z,2.13
2022-08-30T04:51:14.436Z,2.30
2022-08-30T04:53:43.053Z,2.42
2022-08-30T04:56:16.585Z,2.38
2022-08-30T04:58:45.696Z,2.22
2022-08-30T05:01:44.786Z,2.72
2022-08-30T05:04:14.658Z,2.13
2022-08-30T05:06:42.508Z,2.30
2022-08-30T05:09:09.923Z,2.65
2022-08-30T05:11:39.085Z,2.55
2022-08-30T05:14:06.645Z,2.05
2022-08-30T05:16:34.100Z,2.10
2022-08-30T05:19:02.743Z,1.90
2022-08-30T05:21:30.129Z,2.63
2022-08-30T05:24:00.456Z,2.33
2022-08-30T05:26:30.950Z,2.20
2022-08-30T05:28:59.830Z,2.55
2022-08-30T05:31:33.048Z,2.35
2022-08-30T05:34:00.923Z,2.17
2022-08-30T05:36:30.391Z,2.45
2022-08-30T05:38:58.607Z,2.15
2022-08-30T05:41:27.299Z,2.20
2022-08-30T05:44:01.675Z,2.30
2022-08-30T05:49:07.709Z,2.40
2022-08-30T05:51:43.423Z,2.40
2022-08-30T05:54:12.880Z,2.30
2022-08-30T05:56:41.731Z,2.70
2022-08-30T05:59:09.829Z,2.97
2022-08-30T06:01:42.952Z,2.67
2022-08-30T06:04:12.178Z,2.88
2022-08-30T06:06:41.466Z,2.55
2022-08-30T06:09:10.463Z,2.63
2022-08-30T06:11:38.091Z,2.50
2022-08-30T06:14:06.626Z,2.60
2022-08-30T06:16:35.876Z,2.55
2022-08-30T06:19:03.371Z,2.60
2022-08-30T06:21:37.167Z,2.50
2022-08-30T06:24:06.968Z,1.90
2022-08-30T06:26:41.480Z,2.88
2022-08-30T06:29:10.550Z,2.67
2022-08-30T06:31:38.636Z,2.42
2022-08-30T06:34:06.320Z,2.30
2022-08-30T06:36:34.492Z,2.85
2022-08-30T06:39:02.540Z,2.55
2022-08-30T06:41:35.086Z,2.03
2022-08-30T06:44:05.271Z,2.28
2022-08-30T06:46:35.738Z,2.55
2022-08-30T06:49:05.641Z,2.20
2022-08-30T06:51:36.921Z,2.35
2022-08-30T06:54:06.964Z,2.22
2022-08-30T06:56:40.204Z,2.20
2022-08-30T06:59:09.984Z,2.45
2022-08-30T07:01:37.300Z,2.38
2022-08-30T07:04:05.935Z,2.60
2022-08-30T07:06:35.076Z,2.15
2022-08-30T07:09:02.838Z,2.45
2022-08-30T07:11:37.164Z,2.10
2022-08-30T07:14:05.861Z,2.63
2022-08-30T07:16:34.134Z,2.80
2022-08-30T07:19:05.271Z,2.53
2022-08-30T07:21:39.026Z,3.00
2022-08-30T07:24:08.840Z,2.97
2022-08-30T07:26:42.142Z,3.58
2022-08-30T07:29:10.690Z,2.58
2022-08-30T07:31:38.162Z,2.88
2022-08-30T07:34:07.433Z,3.60
2022-08-30T07:36:36.303Z,4.25
2022-08-30T07:39:06.021Z,4.07
2022-08-30T07:41:36.637Z,4.00
2022-08-30T07:44:04.640Z,4.20
2022-08-30T07:46:32.129Z,4.70
2022-08-30T07:49:01.783Z,4.55
2022-08-30T07:51:32.362Z,4.00
2022-08-30T07:54:00.797Z,4.43
2022-08-30T07:56:28.171Z,4.40
2022-08-30T07:58:56.651Z,4.22
2022-08-30T08:01:30.813Z,4.15
2022-08-30T08:04:03.422Z,4.65
2022-08-30T08:06:34.598Z,4.57
2022-08-30T08:09:02.828Z,4.45
2022-08-30T08:11:33.734Z,3.97
2022-08-30T08:14:02.421Z,3.90
2022-08-30T08:16:32.510Z,4.47
2022-08-30T08:19:00.207Z,4.00
2022-08-30T08:21:27.671Z,4.05
2022-08-30T08:23:55.143Z,3.58
2022-08-30T08:26:22.898Z,3.60
2022-08-30T08:28:50.287Z,4.00
2022-08-30T08:31:20.306Z,3.63
2022-08-30T08:33:48.026Z,3.80
2022-08-30T08:36:15.893Z,3.53
2022-08-30T08:38:43.276Z,3.50
2022-08-30T08:41:42.865Z,3.85
2022-08-30T08:47:23.833Z,4.00
2022-08-30T08:49:56.327Z,3.20
2022-08-30T08:52:51.364Z,3.38
2022-08-30T08:55:22.527Z,3.60
2022-08-30T08:57:50.253Z,3.60
2022-08-30T09:00:17.644Z,3.13
2022-08-30T09:02:51.677Z,3.53
2022-08-30T09:05:29.071Z,3.97
2022-08-30T09:08:09.156Z,4.55
2022-08-30T09:10:50.441Z,3.88
2022-08-30T09:13:19.731Z,4.18
2022-08-30T09:15:55.036Z,3.78
2022-08-30T09:18:54.644Z,4.00
2022-08-30T09:21:28.025Z,3.90
2022-08-30T09:24:01.673Z,3.75
2022-08-30T09:26:37.868Z,3.60
2022-08-30T09:29:17.498Z,4.05
2022-08-30T09:31:52.948Z,3.75
2022-08-30T09:34:35.882Z,3.90
2022-08-30T09:37:03.294Z,3.00
2022-08-30T09:39:35.593Z,3.65
2022-08-30T09:42:24.070Z,3.55
2022-08-30T09:44:53.118Z,3.65
2022-08-30T09:47:31.450Z,3.50
2022-08-30T09:50:13.770Z,3.83
2022-08-30T09:53:12.032Z,4.20
2022-08-30T09:56:00.614Z,3.97
2022-08-30T09:58:38.219Z,4.75
2022-08-30T10:01:20.673Z,3.80
2022-08-30T10:03:56.290Z,3.08
2022-08-30T10:06:50.259Z,3.75
2022-08-30T10:09:36.695Z,4.15
2022-08-30T10:12:15.744Z,3.65
2022-08-30T10:14:45.850Z,4.07
2022-08-30T10:17:35.157Z,3.38
2022-08-30T10:20:23.814Z,3.95
2022-08-30T10:23:20.108Z,3.40
2022-08-30T10:26:12.174Z,3.58
2022-08-30T10:28:52.360Z,3.10
2022-08-30T10:31:53.689Z,3.83
2022-08-30T10:34:36.166Z,3.60
2022-08-30T10:37:25.312Z,3.28
2022-08-30T10:39:59.312Z,3.60
2022-08-30T10:42:39.363Z,3.40
2022-08-30T10:45:15.269Z,3.72
2022-08-30T10:47:50.409Z,3.22
2022-08-30T10:50:24.762Z,3.22
2022-08-30T10:52:59.756Z,3.45
2022-08-30T10:55:36.843Z,3.25
2022-08-30T10:58:06.855Z,2.90
2022-08-30T11:00:47.652Z,3.22
2022-08-30T11:03:18.908Z,2.95
2022-08-30T11:06:37.764Z,3.50
2022-08-30T11:09:32.038Z,3.05
2022-08-30T11:12:47.413Z,2.63
2022-08-30T11:15:21.450Z,3.03
2022-08-30T11:18:13.168Z,3.30
2022-08-30T11:20:53.689Z,3.50
2022-08-30T11:23:36.380Z,3.25
2022-08-30T11:26:13.986Z,3.17
2022-08-30T11:28:48.019Z,3.58
2022-08-30T11:31:21.070Z,2.85
2022-08-30T11:34:01.016Z,2.50
2022-08-30T11:36:37.711Z,3.15
2022-08-30T11:39:11.818Z,3.25
2022-08-30T11:41:47.928Z,3.35
2022-08-30T11:44:21.942Z,3.13
2022-08-30T11:46:51.352Z,3.55
2022-08-30T11:49:18.499Z,3.40
2022-08-30T11:52:27.211Z,3.75
2022-08-30T11:55:06.902Z,3.85
2022-08-30T11:58:02.230Z,3.50
2022-08-30T12:00:42.081Z,3.40
2022-08-30T12:03:15.466Z,3.08
2022-08-30T12:05:47.977Z,4.05
2022-08-30T12:08:24.321Z,3.72
2022-08-30T12:10:59.777Z,3.88
2022-08-30T12:13:35.649Z,3.80
2022-08-30T12:16:21.475Z,3.30
2022-08-30T12:19:00.485Z,3.10
2022-08-30T12:21:43.672Z,3.58
2022-08-30T12:24:40.436Z,3.63
2022-08-30T12:30:07.247Z,3.67
2022-08-30T12:32:47.588Z,3.35
2022-08-30T12:35:23.562Z,3.33
2022-08-30T12:38:03.549Z,3.50
2022-08-30T12:40:31.895Z,3.08
2022-08-30T12:43:07.756Z,2.80
2022-08-30T12:45:44.257Z,2.70
2022-08-30T12:48:19.865Z,2.67
2022-08-30T12:50:54.105Z,3.13
2022-08-30T12:53:26.787Z,3.42
2022-08-30T12:58:43.990Z,2.90
2022-08-30T13:01:31.361Z,3.20
2022-08-30T13:04:22.323Z,2.58
2022-08-30T13:06:52.455Z,2.85
2022-08-30T13:09:34.825Z,2.95
2022-08-30T13:12:04.887Z,2.90
2022-08-30T13:14:33.987Z,2.50
2022-08-30T13:17:08.938Z,2.78
2022-08-30T13:19:44.023Z,2.67
2022-08-30T13:22:35.133Z,2.35
2022-08-30T13:25:04.185Z,2.75
2022-08-30T13:27:31.508Z,2.90
2022-08-30T13:30:18.740Z,2.88
2022-08-30T13:32:46.031Z,2.40
2022-08-30T13:35:13.506Z,2.63
2022-08-30T13:37:47.631Z,2.22
2022-08-30T13:40:19.603Z,2.38
2022-08-30T13:42:47.051Z,2.78
2022-08-30T13:48:04.229Z,2.45
2022-08-30T13:50:33.007Z,2.90
2022-08-30T13:53:00.280Z,2.65
2022-08-30T13:55:28.174Z,2.67
2022-08-30T13:57:56.661Z,2.88
2022-08-30T14:00:26.947Z,2.50
2022-08-30T14:02:57.711Z,2.55
2022-08-30T14:05:49.224Z,2.63
2022-08-30T14:11:12.287Z,2.97
2022-08-30T14:14:14.649Z,2.80
2022-08-30T14:16:28.808Z,3.10
2022-08-30T14:18:59.240Z,2.65
2022-08-30T14:21:27.006Z,3.35
2022-08-30T14:23:56.665Z,3.50
2022-08-30T14:26:32.231Z,3.30
2022-08-30T14:29:00.852Z,3.17
2022-08-30T14:31:30.211Z,3.58
2022-08-30T14:34:04.270Z,3.47
2022-08-30T14:36:34.744Z,3.65
2022-08-30T14:39:08.402Z,3.40
2022-08-30T14:41:43.597Z,3.53
2022-08-30T14:44:13.375Z,3.88
2022-08-30T14:46:42.079Z,3.38
2022-08-30T14:49:11.223Z,3.83
2022-08-30T14:51:39.018Z,3.70
2022-08-30T14:54:06.594Z,3.80
2022-08-30T14:56:36.765Z,3.75
2022-08-30T14:59:04.033Z,3.30
2022-08-30T15:01:33.311Z,3.92
2022-08-30T15:04:06.295Z,3.85
2022-08-30T15:06:37.183Z,3.92
2022-08-30T15:09:07.163Z,3.83
2022-08-30T15:11:35.604Z,3.90
2022-08-30T15:14:04.749Z,4.10
2022-08-30T15:16:35.766Z,4.53
2022-08-30T15:19:04.318Z,3.80
2022-08-30T15:21:43.778Z,3.70
2022-08-30T15:24:17.098Z,3.70
2022-08-30T15:26:44.608Z,4.13
2022-08-30T15:29:14.353Z,4.47
2022-08-30T15:31:42.631Z,4.30
2022-08-30T15:34:13.249Z,3.92
2022-08-30T15:36:41.782Z,3.85
2022-08-30T15:39:10.000Z,3.85
2022-08-30T15:41:39.923Z,3.92
2022-08-30T15:44:12.217Z,3.47
2022-08-30T15:46:46.846Z,4.07
2022-08-30T15:49:24.890Z,4.10
2022-08-30T15:51:54.382Z,4.03
2022-08-30T15:54:24.113Z,3.72
2022-08-30T15:56:59.390Z,3.55
2022-08-30T15:59:29.025Z,3.63
2022-08-30T16:01:59.328Z,3.63
2022-08-30T16:04:26.882Z,3.78
2022-08-30T16:06:55.084Z,3.55
2022-08-30T16:09:23.874Z,3.28
2022-08-30T16:11:51.355Z,3.42
2022-08-30T16:14:18.890Z,4.22
2022-08-30T16:16:46.756Z,3.70
2022-08-30T16:19:14.265Z,3.90
2022-08-30T16:21:43.670Z,3.70
2022-08-30T16:24:13.842Z,3.80
2022-08-30T16:26:43.605Z,4.18
2022-08-30T16:29:12.656Z,3.67
2022-08-30T16:31:41.688Z,3.65
2022-08-30T16:34:10.023Z,3.75
2022-08-30T16:36:37.418Z,3.88
2022-08-30T16:39:08.449Z,3.92
2022-08-30T16:41:38.914Z,4.13
2022-08-30T16:44:06.923Z,4.25
2022-08-30T16:46:36.599Z,4.38
2022-08-30T16:49:05.564Z,4.95
2022-08-30T16:51:37.136Z,4.43
2022-08-30T16:54:07.648Z,4.10
2022-08-30T16:56:36.588Z,4.78
2022-08-30T16:59:10.908Z,4.47
2022-08-30T17:01:39.430Z,4.50
2022-08-30T17:04:08.376Z,4.80
2022-08-30T17:06:36.226Z,4.95
2022-08-30T17:09:06.415Z,5.13
2022-08-30T17:11:36.678Z,5.00
2022-08-30T17:14:05.429Z,5.15
2022-08-30T17:16:36.899Z,5.32
2022-08-30T17:19:05.427Z,5.50
2022-08-30T17:21:34.673Z,5.25
2022-08-30T17:24:03.032Z,5.63
2022-08-30T17:26:37.270Z,5.47
2022-08-30T17:29:05.900Z,5.53
2022-08-30T17:31:36.116Z,5.57
2022-08-30T17:34:06.005Z,5.32
2022-08-30T17:36:36.467Z,5.15
2022-08-30T17:39:11.844Z,4.75
2022-08-30T17:41:50.184Z,5.93
2022-08-30T17:45:18.997Z,5.75
2022-08-30T17:48:45.879Z,4.60
2022-08-30T17:52:12.980Z,5.38
2022-08-30T17:55:39.437Z,5.90
2022-08-30T17:59:11.286Z,5.88
2022-08-30T18:02:37.521Z,5.00
2022-08-30T18:06:04.486Z,4.93
2022-08-30T18:09:34.051Z,5.80
2022-08-30T18:13:00.261Z,6.00
2022-08-30T18:16:26.426Z,5.55
2022-08-30T18:19:53.870Z,6.80
2022-08-30T18:23:24.160Z,6.13
2022-08-30T18:26:57.667Z,6.07
2022-08-30T18:30:23.798Z,6.15
2022-08-30T18:33:54.910Z,6.22
2022-08-30T18:37:20.706Z,6.18
2022-08-30T18:40:57.567Z,6.63
2022-08-30T18:44:28.270Z,7.10
2022-08-30T18:47:57.052Z,7.90
2022-08-30T18:51:23.020Z,7.53
2022-08-30T18:54:52.871Z,7.45
2022-08-30T18:58:19.757Z,6.70
2022-08-30T19:00:47.888Z,7.40
2022-08-30T19:04:29.539Z,8.50
2022-08-30T19:08:01.180Z,7.93
2022-08-30T19:11:27.193Z,8.20
2022-08-30T19:14:53.222Z,8.52
2022-08-30T19:18:19.969Z,11.15
2022-08-30T19:21:46.169Z,8.20
2022-08-30T19:25:12.391Z,8.23
2022-08-30T19:28:38.481Z,7.45
2022-08-30T19:32:04.660Z,8.93
2022-08-30T19:35:31.120Z,8.48
2022-08-30T19:38:57.237Z,7.57
2022-08-30T19:42:23.230Z,7.07
2022-08-30T19:45:53.780Z,6.80
2022-08-30T19:49:19.613Z,7.97
2022-08-30T19:52:53.305Z,9.02
2022-08-30T19:56:21.081Z,6.38
2022-08-30T19:59:48.408Z,5.60
2022-08-30T20:03:14.339Z,5.80
2022-08-30T20:10:11.254Z,5.97
2022-08-30T20:13:37.835Z,6.07
2022-08-30T20:17:03.806Z,6.50
2022-08-30T20:20:29.859Z,6.63
2022-08-30T20:23:55.803Z,7.00
2022-08-30T20:27:21.692Z,8.32
2022-08-30T20:30:48.259Z,7.32
2022-08-30T20:34:14.037Z,5.82
2022-08-30T20:37:40.606Z,6.70
2022-08-30T20:41:11.449Z,6.15
2022-08-30T20:44:39.033Z,6.78
2022-08-30T20:48:05.928Z,5.95
2022-08-30T20:51:34.865Z,7.30
2022-08-30T20:55:02.147Z,5.75
2022-08-30T20:58:28.384Z,5.32
2022-08-30T21:01:54.969Z,5.45
2022-08-30T21:05:22.339Z,5.28
2022-08-30T21:08:48.124Z,5.38
2022-08-30T21:12:15.455Z,5.43
2022-08-30T21:19:12.706Z,5.05
2022-08-30T21:22:38.790Z,5.25
2022-08-30T21:26:06.255Z,5.32
2022-08-30T21:33:00.299Z,5.70
2022-08-30T21:36:45.775Z,5.32
2022-08-30T21:40:17.360Z,5.07
2022-08-30T21:43:43.406Z,5.15
2022-08-30T21:47:11.425Z,5.75
2022-08-30T21:50:41.285Z,6.07
2022-08-30T21:54:11.311Z,5.53
2022-08-30T21:57:38.533Z,5.53
2022-08-30T22:04:34.631Z,5.53
2022-08-30T22:08:00.730Z,5.55
2022-08-30T22:11:28.227Z,5.88
2022-08-30T22:14:54.820Z,5.43
2022-08-30T22:18:20.556Z,5.30
2022-08-30T22:20:47.945Z,4.90
2022-08-30T22:23:19.120Z,5.38
2022-08-30T22:25:47.080Z,5.20
2022-08-30T22:28:15.374Z,5.45
2022-08-30T22:30:44.879Z,5.07
2022-08-30T22:33:12.257Z,5.18
2022-08-30T22:35:39.660Z,4.95
2022-08-30T22:38:11.004Z,5.53
2022-08-30T22:40:48.657Z,4.85
2022-08-30T22:43:31.181Z,5.25
2022-08-30T22:45:59.437Z,4.63
2022-08-30T22:48:33.091Z,5.40
2022-08-30T22:51:02.611Z,5.30
2022-08-30T22:53:30.299Z,5.75
2022-08-30T22:55:59.574Z,5.13
2022-08-30T22:58:27.991Z,5.35
2022-08-30T23:00:55.621Z,5.30
2022-08-30T23:03:23.016Z,5.28
2022-08-30T23:05:50.321Z,6.30
2022-08-30T23:08:18.476Z,5.75
2022-08-30T23:10:45.950Z,6.18
2022-08-30T23:13:13.102Z,5.70
2022-08-30T23:15:40.556Z,6.97
2022-08-30T23:18:08.114Z,5.82
2022-08-30T23:20:35.381Z,5.80
2022-08-30T23:23:03.850Z,6.38
2022-08-30T23:25:52.020Z,5.57
2022-08-30T23:28:39.820Z,5.60
2022-08-30T23:31:36.258Z,5.50
2022-08-30T23:34:21.991Z,5.20
2022-08-30T23:39:53.337Z,4.87
2022-08-30T23:45:25.463Z,4.90
2022-08-30T23:48:11.097Z,4.97
2022-08-30T23:53:43.817Z,5.20
2022-08-30T23:56:31.463Z,4.80
2022-08-30T23:59:17.191Z,5.63
